CheckWX is a tool to help pilots better visualize weather data.  It is not intended as a substitute for an official pre-flight weather briefing.

11:52:36 UTC

KRRT METAR
Warroad International Memorial Airport
Warroad, Minnesota, USA
Current

18 mins ago

KRRT 181135Z AUTO 25007KT 10SM 10/08 A2971 RMK AO2
Observed
Aug-18 @ 11:35 UTC
Wind
  • 250° at 7 KTS
Visibility
10 SM
Temperature
10°C / 50°F
Dewpoint
C / 46°F
Humidity
88%
Altimeter
29.71" Hg
Pressure
1006.12 hPa
Previous

38 mins ago

KRRT 181115Z AUTO 25005KT 10SM 10/08 A2971 RMK AO2
Observed
Aug-18 @ 11:15 UTC
Wind
  • 250° at 5 KTS
Visibility
10 SM
Temperature
10°C / 50°F
Dewpoint
C / 46°F
Humidity
88%
Altimeter
29.71" Hg
Pressure
1006.12 hPa
Previous

57 mins ago

KRRT 181056Z AUTO 25005KT 10SM 10/08 A2971 RMK AO2
Observed
Aug-18 @ 10:56 UTC
Wind
  • 250° at 5 KTS
Visibility
10 SM
Temperature
10°C / 50°F
Dewpoint
C / 46°F
Humidity
88%
Altimeter
29.71" Hg
Pressure
1006.12 hPa